This is the latest recevied weather packets stored in our database for station/object OH2CHY-10. If no packets are shown the sender has not sent any weather packets the latest 10 day(s).
| Time | Temp. | Humidity | Pressure | Rain* | Wind** | Luminosity | Snow |
|---|---|---|---|---|---|---|---|
| 1777778945 | 13.33° C | 54% | 1005.4 hPa | - | - | - | - |
| 1777778045 | 12.22° C | 61% | 1005.8 hPa | - | - | - | - |
| 1777777145 | 8.89° C | 68% | 1005.7 hPa | - | - | - | - |
| 1777776245 | 7.22° C | 70% | 1005.8 hPa | - | - | - | - |
| 1777775345 | 6.67° C | 71% | 1005.8 hPa | - | - | - | - |
| 1777774445 | 6.67° C | 71% | 1005.8 hPa | - | - | - | - |
| 1777773545 | 6.67° C | 72% | 1005.5 hPa | - | - | - | - |
| 1777772645 | 6.67° C | 70% | 1005.8 hPa | - | - | - | - |
| 1777771745 | 6.67° C | 69% | 1005.8 hPa | - | - | - | - |
| 1777770845 | 7.22° C | 68% | 1005.9 hPa | - | - | - | - |
| 1777769945 | 6.67° C | 70% | 1005.8 hPa | - | - | - | - |
| 1777769045 | 7.22° C | 69% | 1005.6 hPa | - | - | - | - |
| 1777768145 | 7.22° C | 67% | 1005.9 hPa | - | - | - | - |
| 1777767245 | 7.22° C | 66% | 1006.2 hPa | - | - | - | - |
| 1777766344 | 7.78° C | 66% | 1006.3 hPa | - | - | - | - |
| 1777765444 | 7.78° C | 65% | 1006.4 hPa | - | - | - | - |
| 1777764544 | 7.78° C | 65% | 1006.5 hPa | - | - | - | - |
| 1777763644 | 8.33° C | 64% | 1006.7 hPa | - | - | - | - |
| 1777762744 | 8.33° C | 64% | 1006.8 hPa | - | - | - | - |
| 1777761844 | 8.33° C | 62% | 1006.9 hPa | - | - | - | - |
| 1777760944 | 8.89° C | 62% | 1007 hPa | - | - | - | - |
| 1777760044 | 8.89° C | 61% | 1007.2 hPa | - | - | - | - |
| 1777759144 | 8.89° C | 60% | 1007.3 hPa | - | - | - | - |
| 1777758244 | 9.44° C | 58% | 1007.6 hPa | - | - | - | - |
| 1777757344 | 10° C | 57% | 1007.7 hPa | - | - | - | - |
* Rain since midnight (hover to see other rain measurements)
** Current wind speed in m/s (hover to see current wind gust speed)